Time;durP1;ratioP1;P1;durP2;ratioP2;P2;SDS_P1;SDS_P2;PMS_P1;PMS_P2;Temp;Humidity;BMP_temperature;BMP_pressure;BME280_temperature;BME280_humidity;BME280_pressure;Samples;Min_cycle;Max_cycle;Signal;HPM_P1;HPM_P2
2023/09/22 00:02:03;;;;;;;15.68;12.45;;;14.80;99.90;;;;;;4993974;28;20072;-63
2023/09/22 00:04:30;;;;;;;16.27;11.88;;;14.80;99.90;;;;;;4993434;28;20658;-63
2023/09/22 00:06:57;;;;;;;15.80;12.63;;;14.90;99.90;;;;;;4993473;28;20046;-63
2023/09/22 00:09:23;;;;;;;17.30;13.73;;;14.80;99.90;;;;;;4993924;28;20056;-63
2023/09/22 00:11:49;;;;;;;15.00;12.35;;;14.80;99.90;;;;;;5009964;28;20101;-63
2023/09/22 00:14:16;;;;;;;16.83;13.43;;;14.80;99.90;;;;;;5010777;28;20049;-62
2023/09/22 00:16:42;;;;;;;14.75;11.82;;;14.90;99.90;;;;;;5009919;28;20650;-61
2023/09/22 00:19:09;;;;;;;15.77;13.15;;;14.80;99.90;;;;;;4977409;28;20510;-63
2023/09/22 00:21:35;;;;;;;17.15;12.25;;;14.90;99.90;;;;;;5009551;28;20283;-64
2023/09/22 00:24:02;;;;;;;15.45;12.63;;;14.90;99.90;;;;;;5009607;28;20049;-64
2023/09/22 00:26:29;;;;;;;16.27;12.40;;;14.80;99.90;;;;;;4992966;28;20099;-65
2023/09/22 00:28:56;;;;;;;15.75;12.73;;;14.80;99.90;;;;;;4993343;28;20050;-61
2023/09/22 00:31:23;;;;;;;14.40;11.55;;;14.80;99.90;;;;;;4993485;28;20383;-62
2023/09/22 00:33:49;;;;;;;14.43;12.60;;;14.90;99.90;;;;;;4993355;28;20064;-62
2023/09/22 00:36:16;;;;;;;16.38;13.05;;;14.80;99.90;;;;;;4992945;28;20058;-64
2023/09/22 00:38:42;;;;;;;16.92;13.05;;;14.90;99.90;;;;;;4992945;28;20058;-63
2023/09/22 00:41:09;;;;;;;16.08;12.18;;;14.80;99.90;;;;;;5009534;28;20338;-62
2023/09/22 00:43:35;;;;;;;17.58;13.07;;;14.80;99.90;;;;;;5009003;28;20060;-63
2023/09/22 00:46:01;;;;;;;16.45;13.43;;;14.90;99.90;;;;;;4976691;28;20064;-61
2023/09/22 00:48:30;;;;;;;17.95;12.80;;;14.90;99.90;;;;;;4992897;28;20049;-63
2023/09/22 00:50:56;;;;;;;15.52;13.10;;;14.90;99.90;;;;;;4993038;28;20050;-63
2023/09/22 00:53:28;;;;;;;15.77;12.63;;;14.90;99.90;;;;;;4992364;28;20463;-64
2023/09/22 00:55:55;;;;;;;15.20;13.00;;;14.90;99.90;;;;;;4992512;28;20049;-65
2023/09/22 00:58:22;;;;;;;16.73;13.43;;;14.80;99.90;;;;;;5009409;28;20050;-62
2023/09/22 01:00:49;;;;;;;16.20;13.48;;;14.80;99.90;;;;;;4992950;28;20093;-65
2023/09/22 01:03:16;;;;;;;17.92;13.90;;;14.80;99.90;;;;;;4992144;28;20100;-63
2023/09/22 01:05:45;;;;;;;15.63;13.45;;;14.80;99.90;;;;;;4993752;28;20049;-61
2023/09/22 01:08:12;;;;;;;16.73;12.10;;;14.80;99.90;;;;;;4992912;28;20430;-62
2023/09/22 01:10:43;;;;;;;16.35;12.95;;;14.90;99.90;;;;;;4993186;28;20061;-64
2023/09/22 01:13:09;;;;;;;16.92;13.52;;;14.80;99.90;;;;;;5008383;28;20058;-65
2023/09/22 01:15:37;;;;;;;18.65;13.52;;;14.70;99.90;;;;;;5025202;28;20454;-63
2023/09/22 01:18:04;;;;;;;18.45;14.57;;;14.70;99.90;;;;;;5008610;28;20455;-61
2023/09/22 01:20:32;;;;;;;16.98;13.35;;;14.70;99.90;;;;;;4992468;28;20109;-63
2023/09/22 01:22:59;;;;;;;18.25;12.85;;;14.70;99.90;;;;;;4991860;28;20057;-63
2023/09/22 01:25:25;;;;;;;16.33;13.25;;;14.70;99.90;;;;;;4992126;28;20046;-63
2023/09/22 01:27:51;;;;;;;17.23;12.88;;;14.60;99.90;;;;;;4992797;28;20045;-65
2023/09/22 01:30:17;;;;;;;17.77;13.00;;;14.60;99.90;;;;;;4992435;28;20096;-64
2023/09/22 01:32:44;;;;;;;15.23;12.30;;;14.50;99.90;;;;;;4991881;28;20058;-64
2023/09/22 01:35:10;;;;;;;15.55;11.80;;;14.50;99.90;;;;;;4992203;28;20057;-61
2023/09/22 01:37:45;;;;;;;13.95;10.75;;;14.40;99.90;;;;;;4991858;28;20054;-63
2023/09/22 01:40:13;;;;;;;14.60;11.30;;;14.40;99.90;;;;;;4992350;28;20054;-63
2023/09/22 01:42:39;;;;;;;15.95;11.48;;;14.50;99.90;;;;;;4991732;28;20056;-63
2023/09/22 01:45:06;;;;;;;13.07;10.80;;;14.40;99.90;;;;;;4992189;28;20482;-64
2023/09/22 01:47:33;;;;;;;15.05;10.63;;;14.40;99.90;;;;;;4992442;28;20130;-62
2023/09/22 01:50:00;;;;;;;13.05;10.20;;;14.40;99.90;;;;;;4991957;28;20497;-64
2023/09/22 01:52:26;;;;;;;13.02;10.68;;;14.40;99.90;;;;;;4992488;28;20058;-63
2023/09/22 01:54:52;;;;;;;14.98;11.18;;;14.30;99.90;;;;;;5008025;28;20057;-66
2023/09/22 01:57:20;;;;;;;15.35;10.13;;;14.30;99.90;;;;;;4992295;28;20417;-64
2023/09/22 01:59:46;;;;;;;12.98;10.38;;;14.20;99.90;;;;;;4992074;28;20054;-64
2023/09/22 02:02:14;;;;;;;15.05;10.75;;;14.20;99.90;;;;;;4991940;28;20084;-61
2023/09/22 02:04:40;;;;;;;14.63;11.02;;;14.20;99.90;;;;;;4991981;28;20060;-64
2023/09/22 02:07:07;;;;;;;14.50;11.25;;;14.30;99.90;;;;;;4992031;28;20340;-65
2023/09/22 02:09:34;;;;;;;15.45;10.82;;;14.20;99.90;;;;;;4975935;28;20449;-62
2023/09/22 02:12:00;;;;;;;14.88;10.88;;;14.30;99.90;;;;;;4992362;28;20058;-64
2023/09/22 02:14:33;;;;;;;15.18;11.20;;;14.20;99.90;;;;;;4991453;28;20061;-64
2023/09/22 02:16:59;;;;;;;16.58;11.45;;;14.30;99.90;;;;;;5012824;28;20050;-61
2023/09/22 02:19:26;;;;;;;18.20;11.93;;;14.10;99.90;;;;;;5013430;28;20069;-63
2023/09/22 02:21:52;;;;;;;15.30;11.77;;;14.20;99.90;;;;;;5013294;28;20098;-64
2023/09/22 02:24:19;;;;;;;16.35;11.30;;;14.10;99.90;;;;;;5013471;28;20141;-66
2023/09/22 02:26:45;;;;;;;15.55;11.88;;;14.20;99.90;;;;;;4995250;28;20060;-64
2023/09/22 02:29:11;;;;;;;17.95;12.13;;;14.20;99.90;;;;;;5013020;28;20053;-63
2023/09/22 02:31:38;;;;;;;16.90;11.52;;;14.20;99.90;;;;;;5012067;28;20068;-64
2023/09/22 02:34:04;;;;;;;15.95;11.18;;;14.10;99.90;;;;;;5012430;28;20479;-64
2023/09/22 02:36:32;;;;;;;16.95;11.82;;;14.10;99.90;;;;;;5012176;28;20061;-64
2023/09/22 02:38:58;;;;;;;17.45;11.48;;;14.00;99.90;;;;;;4995680;28;20057;-63
2023/09/22 02:41:25;;;;;;;16.58;10.18;;;14.10;99.90;;;;;;5012704;28;20126;-62
2023/09/22 02:43:51;;;;;;;13.60;10.93;;;14.10;99.90;;;;;;5012190;28;20057;-64
2023/09/22 02:46:17;;;;;;;11.65;9.15;;;14.10;99.90;;;;;;5004071;28;20042;-64
2023/09/22 02:48:47;;;;;;;12.63;7.68;;;14.10;99.90;;;;;;4992990;28;20172;-63
2023/09/22 02:51:13;;;;;;;10.85;6.90;;;14.00;99.90;;;;;;4993060;28;20109;-63
2023/09/22 02:53:40;;;;;;;8.48;5.65;;;14.10;99.90;;;;;;4992918;28;20368;-62
2023/09/22 02:56:06;;;;;;;8.75;6.22;;;14.00;99.90;;;;;;4999962;28;20056;-64
2023/09/22 02:58:32;;;;;;;11.82;6.25;;;14.00;99.90;;;;;;5012313;28;20049;-62
2023/09/22 03:00:59;;;;;;;10.82;7.47;;;13.90;99.90;;;;;;5012557;28;20054;-63
2023/09/22 03:03:25;;;;;;;11.57;8.23;;;13.90;99.90;;;;;;5012150;28;20050;-60
2023/09/22 03:05:51;;;;;;;12.43;8.32;;;13.80;99.90;;;;;;5007582;28;20046;-64
2023/09/22 03:08:18;;;;;;;13.45;8.48;;;13.70;99.90;;;;;;4992838;28;20320;-64
2023/09/22 03:10:44;;;;;;;15.85;9.05;;;13.80;99.90;;;;;;4992540;28;20050;-63
2023/09/22 03:13:10;;;;;;;16.17;9.27;;;13.70;99.90;;;;;;4991847;28;20562;-65
2023/09/22 03:15:36;;;;;;;12.20;9.18;;;13.80;99.90;;;;;;4977906;28;20053;-61
2023/09/22 03:18:04;;;;;;;15.52;9.88;;;13.80;99.90;;;;;;5012324;28;20485;-63
2023/09/22 03:20:30;;;;;;;14.75;9.57;;;13.80;99.90;;;;;;5011824;28;20463;-64
2023/09/22 03:22:57;;;;;;;17.98;11.18;;;13.80;99.90;;;;;;5011622;28;20073;-63
2023/09/22 03:25:23;;;;;;;16.92;11.63;;;13.90;99.90;;;;;;5010843;28;20058;-63
2023/09/22 03:27:49;;;;;;;21.80;14.30;;;13.80;99.90;;;;;;4975176;28;20498;-64
2023/09/22 03:30:17;;;;;;;19.83;13.50;;;13.90;99.90;;;;;;4992433;28;20051;-65
2023/09/22 03:32:43;;;;;;;19.48;13.25;;;13.80;99.90;;;;;;4991723;28;20487;-62
2023/09/22 03:35:09;;;;;;;21.55;14.85;;;13.90;99.90;;;;;;4992529;28;20064;-62
2023/09/22 03:37:36;;;;;;;22.40;13.20;;;13.90;99.90;;;;;;5010554;28;20402;-62
2023/09/22 03:40:10;;;;;;;21.98;15.38;;;13.80;99.90;;;;;;5011566;28;20060;-63
2023/09/22 03:42:43;;;;;;;25.05;15.75;;;13.70;99.90;;;;;;5011105;28;20522;-64
2023/09/22 03:45:10;;;;;;;23.98;16.05;;;13.80;99.90;;;;;;5012059;28;20050;-63
2023/09/22 03:47:36;;;;;;;21.25;15.27;;;13.80;99.90;;;;;;4992943;28;20050;-62
2023/09/22 03:50:03;;;;;;;24.00;15.75;;;13.70;99.90;;;;;;4992345;28;20061;-63
2023/09/22 03:52:29;;;;;;;25.60;16.38;;;13.80;99.90;;;;;;4991905;28;20061;-64
2023/09/22 03:54:56;;;;;;;22.67;15.80;;;13.80;99.90;;;;;;4991841;28;20490;-63
2023/09/22 03:57:22;;;;;;;25.23;16.02;;;13.80;99.90;;;;;;5008611;28;20045;-64
2023/09/22 03:59:49;;;;;;;22.13;15.77;;;13.70;99.90;;;;;;5011181;28;20485;-63
2023/09/22 04:02:15;;;;;;;22.33;15.52;;;13.70;99.90;;;;;;5011205;28;20061;-63
2023/09/22 04:04:42;;;;;;;24.17;15.30;;;13.70;99.90;;;;;;5011049;28;20351;-61
2023/09/22 04:07:09;;;;;;;24.02;16.42;;;13.70;99.90;;;;;;5011196;28;20096;-61
2023/09/22 04:09:36;;;;;;;23.50;15.85;;;13.60;99.90;;;;;;5011639;28;20042;-63
2023/09/22 04:12:02;;;;;;;23.70;15.35;;;13.50;99.90;;;;;;4993970;28;20391;-64
2023/09/22 04:14:28;;;;;;;25.70;16.40;;;13.60;99.90;;;;;;5011232;28;20045;-64
2023/09/22 04:16:54;;;;;;;27.23;17.58;;;13.50;99.90;;;;;;4999140;28;20070;-64
2023/09/22 04:19:21;;;;;;;27.13;17.67;;;13.40;99.90;;;;;;4991921;28;20189;-63
2023/09/22 04:21:48;;;;;;;28.75;18.05;;;13.40;99.90;;;;;;4991785;28;20054;-63
2023/09/22 04:24:15;;;;;;;28.52;18.70;;;13.40;99.90;;;;;;4991010;28;20046;-62
2023/09/22 04:26:44;;;;;;;26.77;17.38;;;13.50;99.90;;;;;;5002274;28;20053;-63
2023/09/22 04:29:11;;;;;;;29.40;17.23;;;13.40;99.90;;;;;;4993079;28;20371;-65
2023/09/22 04:31:38;;;;;;;30.63;18.80;;;13.40;99.90;;;;;;5010814;28;20084;-64
2023/09/22 04:34:04;;;;;;;31.95;19.90;;;13.40;99.90;;;;;;5010482;28;20058;-64
2023/09/22 04:36:31;;;;;;;29.65;18.90;;;13.30;99.90;;;;;;5001497;28;20383;-64
2023/09/22 04:38:57;;;;;;;30.40;19.63;;;13.30;99.90;;;;;;5010306;28;20124;-63
2023/09/22 04:41:24;;;;;;;30.02;19.17;;;13.30;99.90;;;;;;5010726;28;20064;-64
2023/09/22 04:43:54;;;;;;;31.80;19.95;;;13.30;99.90;;;;;;5010207;28;20057;-64
2023/09/22 04:46:20;;;;;;;30.85;18.73;;;13.30;99.90;;;;;;5010124;28;20081;-65
2023/09/22 04:48:47;;;;;;;30.13;19.13;;;13.30;99.90;;;;;;5010883;28;20046;-63
2023/09/22 04:51:14;;;;;;;31.08;19.48;;;13.30;99.90;;;;;;5010949;28;20112;-64
2023/09/22 04:53:41;;;;;;;29.50;17.85;;;13.20;99.90;;;;;;5010221;28;20318;-68
2023/09/22 04:56:08;;;;;;;31.45;19.60;;;13.30;99.90;;;;;;4992720;28;20046;-63
2023/09/22 04:58:34;;;;;;;31.25;19.40;;;13.30;99.90;;;;;;4992745;28;20120;-62
2023/09/22 05:01:02;;;;;;;29.60;18.88;;;13.20;99.90;;;;;;5009843;28;20065;-64
2023/09/22 05:03:29;;;;;;;28.60;18.27;;;13.30;99.90;;;;;;5008628;28;20370;-65
2023/09/22 05:06:05;;;;;;;30.95;19.67;;;13.30;99.90;;;;;;5009503;28;20054;-63
2023/09/22 05:08:31;;;;;;;31.80;19.27;;;13.30;99.90;;;;;;5009165;28;20041;-63
2023/09/22 05:10:57;;;;;;;32.13;19.02;;;13.30;99.90;;;;;;5010190;28;20057;-65
2023/09/22 05:13:23;;;;;;;34.47;19.05;;;13.30;99.90;;;;;;5008741;28;20049;-63
2023/09/22 05:15:50;;;;;;;30.63;18.15;;;13.10;99.90;;;;;;5009626;28;20046;-62
2023/09/22 05:18:16;;;;;;;28.38;18.98;;;13.20;99.90;;;;;;5009306;28;20061;-64
2023/09/22 05:20:43;;;;;;;28.50;18.35;;;13.20;99.90;;;;;;4975645;28;20049;-64
2023/09/22 05:23:10;;;;;;;28.95;18.88;;;13.20;99.90;;;;;;5009574;28;20068;-63
2023/09/22 05:25:43;;;;;;;27.98;16.52;;;13.20;99.90;;;;;;5009956;28;20061;-64
2023/09/22 05:28:10;;;;;;;25.45;15.60;;;13.20;99.90;;;;;;5009563;28;20513;-63
2023/09/22 05:30:38;;;;;;;26.98;16.35;;;13.10;99.90;;;;;;5010523;28;20434;-63
2023/09/22 05:33:06;;;;;;;27.08;15.55;;;13.10;99.90;;;;;;5009660;28;20343;-63
2023/09/22 05:35:35;;;;;;;24.77;15.68;;;13.20;99.90;;;;;;5008903;28;20042;-63
2023/09/22 05:38:05;;;;;;;23.30;14.25;;;13.20;99.90;;;;;;4992453;28;20058;-63
2023/09/22 05:40:35;;;;;;;24.02;15.02;;;13.10;99.90;;;;;;5010129;28;20061;-64
2023/09/22 05:43:04;;;;;;;24.75;15.02;;;13.00;99.90;;;;;;5009237;28;20521;-65
2023/09/22 05:45:31;;;;;;;23.73;13.60;;;13.20;99.90;;;;;;5009869;28;20054;-63
2023/09/22 05:47:57;;;;;;;25.73;15.13;;;13.10;99.90;;;;;;5010034;28;20057;-64
2023/09/22 05:50:24;;;;;;;20.90;12.93;;;13.30;99.90;;;;;;5010752;28;20450;-60
2023/09/22 05:52:50;;;;;;;23.23;14.50;;;13.20;99.90;;;;;;5014023;28;20045;-62
2023/09/22 05:55:19;;;;;;;22.73;12.50;;;13.10;99.90;;;;;;5013828;28;20343;-63
2023/09/22 05:57:50;;;;;;;23.20;13.90;;;13.20;99.90;;;;;;5014140;28;20049;-62
2023/09/22 06:00:17;;;;;;;23.35;12.57;;;13.30;99.90;;;;;;4996261;28;20049;-63
2023/09/22 06:02:47;;;;;;;21.80;12.15;;;13.30;99.90;;;;;;5013201;28;20050;-63
2023/09/22 06:05:14;;;;;;;22.30;13.65;;;13.30;99.90;;;;;;5013455;28;20407;-65
2023/09/22 06:07:41;;;;;;;20.52;13.05;;;13.20;99.90;;;;;;5010883;28;20455;-64
2023/09/22 06:10:09;;;;;;;20.02;12.50;;;13.30;99.90;;;;;;5011760;28;20066;-66
2023/09/22 06:12:39;;;;;;;21.10;12.60;;;13.20;99.90;;;;;;4991823;28;20097;-63
2023/09/22 06:15:09;;;;;;;24.10;13.63;;;13.30;99.90;;;;;;4993692;28;20546;-65
2023/09/22 06:17:37;;;;;;;20.20;12.90;;;13.30;99.90;;;;;;5010893;28;20057;-63
2023/09/22 06:20:13;;;;;;;21.15;12.15;;;13.40;99.90;;;;;;5011772;28;20046;-63
2023/09/22 06:22:42;;;;;;;21.58;13.05;;;13.40;99.90;;;;;;5013174;28;20105;-64
2023/09/22 06:25:08;;;;;;;21.40;12.98;;;13.50;99.90;;;;;;5012920;28;20042;-61
2023/09/22 06:27:35;;;;;;;20.80;13.32;;;13.50;99.90;;;;;;5010797;28;20046;-66
2023/09/22 06:30:05;;;;;;;17.60;11.82;;;13.50;99.90;;;;;;5013411;28;20052;-63
2023/09/22 06:32:32;;;;;;;19.83;12.60;;;13.50;99.90;;;;;;5013204;28;20050;-64
2023/09/22 06:34:58;;;;;;;18.10;12.57;;;13.60;99.90;;;;;;5013053;28;20443;-64
2023/09/22 06:37:24;;;;;;;19.42;12.18;;;13.50;99.90;;;;;;5011971;28;20293;-63
2023/09/22 06:39:51;;;;;;;21.10;12.35;;;13.70;99.90;;;;;;5006065;28;20526;-63
2023/09/22 06:42:18;;;;;;;22.40;14.13;;;13.60;99.90;;;;;;5004743;28;20447;-63
2023/09/22 06:44:44;;;;;;;17.30;11.75;;;13.60;99.90;;;;;;5009222;28;20050;-62
2023/09/22 06:47:11;;;;;;;22.50;12.95;;;13.70;99.90;;;;;;5008352;28;20073;-65
2023/09/22 06:49:38;;;;;;;17.95;11.90;;;13.60;99.90;;;;;;5004177;28;20046;-63
2023/09/22 06:52:06;;;;;;;20.38;12.98;;;13.70;99.90;;;;;;4995281;28;20050;-64
2023/09/22 06:54:33;;;;;;;19.20;12.45;;;13.80;99.90;;;;;;4977293;28;20061;-65
2023/09/22 06:57:01;;;;;;;18.00;12.60;;;13.80;99.90;;;;;;4999413;28;20105;-64
2023/09/22 06:59:28;;;;;;;18.55;12.73;;;13.80;99.90;;;;;;5014094;28;20112;-62
2023/09/22 07:01:54;;;;;;;13.90;10.35;;;13.80;99.90;;;;;;5013816;28;20061;-64
2023/09/22 07:04:21;;;;;;;16.48;11.05;;;13.80;99.90;;;;;;5014575;28;20050;-63
2023/09/22 07:06:47;;;;;;;17.25;11.25;;;13.90;99.90;;;;;;5003262;28;20046;-66
2023/09/22 07:09:13;;;;;;;16.77;10.85;;;13.90;99.90;;;;;;4993667;28;20073;-64
2023/09/22 07:11:40;;;;;;;15.57;10.88;;;14.00;99.90;;;;;;4994525;28;20054;-63
2023/09/22 07:14:07;;;;;;;16.73;10.27;;;14.00;99.90;;;;;;4978561;28;20057;-64
2023/09/22 07:16:34;;;;;;;16.40;10.10;;;14.00;99.90;;;;;;5005329;28;20467;-63
2023/09/22 07:19:00;;;;;;;14.93;10.93;;;14.10;99.90;;;;;;4993861;28;20082;-64
2023/09/22 07:21:27;;;;;;;14.98;10.68;;;14.10;99.90;;;;;;4994505;28;20054;-62
2023/09/22 07:23:55;;;;;;;14.65;10.23;;;14.40;99.90;;;;;;4976914;28;20126;-63
2023/09/22 07:26:26;;;;;;;14.88;10.25;;;14.40;99.90;;;;;;5000753;28;20136;-65
2023/09/22 07:28:52;;;;;;;12.95;10.10;;;14.60;99.90;;;;;;5013102;28;20072;-67
2023/09/22 07:31:20;;;;;;;15.43;10.07;;;14.70;99.90;;;;;;4996409;28;20177;-64
2023/09/22 07:33:47;;;;;;;18.00;10.15;;;14.60;99.90;;;;;;5013557;28;20060;-61
2023/09/22 07:36:14;;;;;;;13.40;9.43;;;14.70;99.90;;;;;;4990725;28;20062;-63
2023/09/22 07:38:41;;;;;;;12.48;9.98;;;14.70;99.90;;;;;;5010681;28;20133;-65
2023/09/22 07:41:07;;;;;;;14.23;9.43;;;14.70;99.90;;;;;;5012916;28;20320;-62
2023/09/22 07:43:35;;;;;;;15.93;9.75;;;14.70;99.90;;;;;;4995773;28;20046;-63
2023/09/22 07:46:04;;;;;;;16.83;9.80;;;14.70;99.90;;;;;;5012851;28;20141;-60
2023/09/22 07:48:30;;;;;;;11.63;9.25;;;14.70;99.90;;;;;;4995469;28;20553;-63
2023/09/22 07:50:58;;;;;;;14.55;9.82;;;14.80;99.90;;;;;;5013153;28;20046;-62
2023/09/22 07:53:25;;;;;;;10.15;8.68;;;14.70;99.90;;;;;;5012767;28;20120;-64
2023/09/22 07:55:55;;;;;;;10.65;7.13;;;14.70;99.90;;;;;;5012229;28;20060;-66
2023/09/22 07:58:25;;;;;;;10.80;7.60;;;14.80;99.90;;;;;;4995683;28;20073;-63
2023/09/22 08:00:52;;;;;;;8.93;6.55;;;14.90;99.90;;;;;;4995755;28;20073;-62
2023/09/22 08:03:19;;;;;;;9.57;5.93;;;14.90;99.90;;;;;;5013556;28;20050;-64
2023/09/22 08:05:46;;;;;;;9.90;7.57;;;15.00;99.90;;;;;;5012853;28;20125;-61
2023/09/22 08:08:13;;;;;;;7.63;5.35;;;15.20;99.90;;;;;;5012975;28;20398;-62
2023/09/22 08:10:40;;;;;;;6.90;4.55;;;15.40;99.90;;;;;;5013007;28;20363;-63
2023/09/22 08:13:09;;;;;;;5.40;4.10;;;15.50;99.90;;;;;;5011885;28;20521;-64
2023/09/22 08:15:39;;;;;;;5.53;4.22;;;15.60;99.90;;;;;;5012791;28;20120;-62
2023/09/22 08:18:06;;;;;;;8.68;4.40;;;15.80;99.90;;;;;;4975847;28;20061;-63
2023/09/22 08:20:33;;;;;;;6.88;4.25;;;15.80;99.90;;;;;;4993453;28;20138;-62
2023/09/22 08:23:00;;;;;;;4.90;3.95;;;15.90;99.90;;;;;;4993463;28;20054;-62
2023/09/22 08:25:27;;;;;;;4.72;3.95;;;15.80;99.90;;;;;;4993094;28;20494;-62
2023/09/22 08:27:54;;;;;;;5.95;4.35;;;15.90;99.90;;;;;;5011273;28;20475;-65
2023/09/22 08:30:20;;;;;;;5.60;4.22;;;16.00;99.90;;;;;;4995240;28;20069;-64
2023/09/22 08:32:47;;;;;;;6.32;4.47;;;16.20;99.90;;;;;;5012366;28;20038;-64
2023/09/22 08:35:17;;;;;;;6.20;4.30;;;16.10;99.90;;;;;;4994901;28;20069;-64
2023/09/22 08:37:44;;;;;;;6.38;4.40;;;16.30;99.90;;;;;;5011482;28;20057;-64
2023/09/22 08:40:15;;;;;;;5.68;4.28;;;16.50;99.90;;;;;;4994792;28;20061;-63
2023/09/22 08:42:44;;;;;;;6.20;3.80;;;16.50;99.90;;;;;;4994849;28;20068;-64
2023/09/22 08:45:12;;;;;;;4.97;4.00;;;16.40;99.90;;;;;;4994737;28;20046;-62
2023/09/22 08:47:39;;;;;;;6.18;3.50;;;16.40;99.90;;;;;;4993858;28;20089;-63
2023/09/22 08:50:16;;;;;;;5.68;4.28;;;16.40;99.90;;;;;;5012338;28;20042;-66
2023/09/22 08:52:45;;;;;;;6.95;3.65;;;16.50;99.90;;;;;;5012748;28;20054;-65
2023/09/22 08:55:13;;;;;;;7.45;4.13;;;16.40;99.90;;;;;;5012386;28;20057;-63
2023/09/22 08:57:44;;;;;;;4.85;4.03;;;16.40;99.90;;;;;;5012016;28;20088;-62
2023/09/22 09:00:18;;;;;;;5.25;4.00;;;16.30;99.90;;;;;;5012688;28;20056;-61
2023/09/22 09:02:46;;;;;;;4.20;3.67;;;16.60;99.90;;;;;;5012394;28;20054;-65
2023/09/22 09:05:24;;;;;;;4.10;3.70;;;16.60;99.90;;;;;;4994643;28;20054;-62
2023/09/22 09:07:51;;;;;;;4.60;3.42;;;16.60;99.90;;;;;;5012098;28;20046;-62
2023/09/22 09:10:33;;;;;;;5.35;3.45;;;16.50;99.90;;;;;;4995161;28;20042;-65
2023/09/22 09:13:06;;;;;;;5.47;4.13;;;16.40;99.90;;;;;;5012311;28;20061;-65
2023/09/22 09:15:54;;;;;;;4.35;2.92;;;16.30;99.90;;;;;;5012376;28;20597;-63
2023/09/22 09:18:23;;;;;;;3.38;3.00;;;16.30;99.90;;;;;;4992671;28;20065;-64
2023/09/22 09:21:14;;;;;;;5.40;3.65;;;16.20;99.90;;;;;;4992709;28;20050;-64
2023/09/22 09:23:55;;;;;;;4.22;3.08;;;16.00;99.90;;;;;;4989196;28;20380;-64
2023/09/22 09:26:29;;;;;;;3.80;2.90;;;15.90;99.90;;;;;;5008083;28;20128;-63
2023/09/22 09:28:56;;;;;;;3.80;2.70;;;15.90;99.90;;;;;;5011670;28;20053;-64
2023/09/22 09:31:48;;;;;;;6.57;2.80;;;15.70;99.90;;;;;;5011845;28;20061;-65
2023/09/22 09:34:15;;;;;;;4.60;2.70;;;15.80;99.90;;;;;;5012108;28;20069;-63
2023/09/22 09:36:41;;;;;;;2.95;2.65;;;15.80;99.90;;;;;;5011039;28;20065;-64
2023/09/22 09:39:08;;;;;;;3.67;2.83;;;15.80;99.90;;;;;;5011968;28;20104;-64
2023/09/22 09:41:37;;;;;;;4.82;2.30;;;15.80;99.90;;;;;;4994819;28;20065;-65
2023/09/22 09:44:04;;;;;;;4.20;3.05;;;15.70;99.90;;;;;;5012185;28;20054;-63
2023/09/22 09:46:32;;;;;;;4.28;2.72;;;15.70;99.90;;;;;;5011865;28;20061;-68
2023/09/22 09:49:02;;;;;;;3.13;2.80;;;15.70;99.90;;;;;;5011992;28;20046;-64
2023/09/22 09:51:36;;;;;;;3.47;2.30;;;16.00;99.90;;;;;;5011525;28;20053;-62
2023/09/22 09:54:07;;;;;;;3.15;2.47;;;16.10;99.90;;;;;;5011891;28;20104;-62
2023/09/22 09:56:39;;;;;;;4.07;2.33;;;16.60;99.90;;;;;;5011636;28;20069;-64
2023/09/22 09:59:07;;;;;;;;;;;16.50;99.90;;;;;;5013159;28;20050;-64
2023/09/22 10:01:35;;;;;;;3.10;2.60;;;16.60;99.90;;;;;;5012393;28;20047;-65
2023/09/22 10:04:04;;;;;;;6.85;2.92;;;16.60;99.90;;;;;;5012452;28;20050;-62
2023/09/22 10:06:32;;;;;;;3.97;2.60;;;16.70;99.90;;;;;;4994241;28;20487;-65
2023/09/22 10:08:58;;;;;;;3.65;3.35;;;16.70;99.90;;;;;;5011586;28;20045;-61
2023/09/22 10:11:25;;;;;;;3.53;3.20;;;16.60;99.90;;;;;;5011752;28;20046;-64
2023/09/22 10:13:51;;;;;;;5.82;3.45;;;16.60;99.90;;;;;;5011723;28;20058;-65
2023/09/22 10:16:30;;;;;;;3.50;3.20;;;16.60;99.90;;;;;;5010909;28;20054;-64
2023/09/22 10:18:59;;;;;;;4.20;2.80;;;16.70;99.90;;;;;;5011475;28;20089;-64
2023/09/22 10:21:28;;;;;;;4.15;2.55;;;16.70;99.90;;;;;;4994077;28;20100;-63
2023/09/22 10:24:13;;;;;;;4.75;2.08;;;16.70;99.90;;;;;;5011583;28;20428;-62
2023/09/22 10:27:06;;;;;;;4.10;2.63;;;16.80;99.90;;;;;;5010327;28;20467;-62
2023/09/22 10:29:35;;;;;;;4.20;2.33;;;17.00;99.90;;;;;;4994193;28;20065;-62
2023/09/22 10:32:26;;;;;;;2.25;2.03;;;16.90;99.90;;;;;;4994135;28;20050;-63
2023/09/22 10:35:09;;;;;;;2.70;2.20;;;17.10;99.90;;;;;;5011312;28;20458;-67
2023/09/22 10:37:36;;;;;;;6.30;2.35;;;17.20;99.90;;;;;;4995922;28;20129;-65
2023/09/22 10:40:11;;;;;;;2.85;2.47;;;17.40;99.90;;;;;;5015180;28;20054;-63
2023/09/22 10:42:42;;;;;;;3.83;2.13;;;17.50;99.90;;;;;;5014748;28;20125;-64
2023/09/22 10:45:09;;;;;;;;;;;17.60;99.90;;;;;;5015388;28;20050;-62
2023/09/22 10:47:41;;;;;;;2.95;2.30;;;17.60;99.90;;;;;;5014582;28;19928;-64
2023/09/22 10:50:18;;;;;;;3.90;2.72;;;17.40;99.90;;;;;;5014806;28;20053;-63
2023/09/22 10:52:56;;;;;;;3.13;2.30;;;17.40;99.90;;;;;;5014756;28;20077;-64
2023/09/22 10:55:22;;;;;;;;;;;17.40;99.90;;;;;;5015423;28;20053;-67
2023/09/22 10:57:49;;;;;;;3.45;2.55;;;17.50;99.90;;;;;;5014025;28;19921;-63
2023/09/22 11:00:18;;;;;;;3.20;2.28;;;17.60;99.90;;;;;;5014404;28;20374;-65
2023/09/22 11:02:45;;;;;;;3.10;2.70;;;17.70;99.90;;;;;;4996959;28;20066;-64
2023/09/22 11:05:12;;;;;;;4.00;2.83;;;17.80;99.90;;;;;;5014293;28;20450;-65
2023/09/22 11:07:42;;;;;;;4.38;2.92;;;17.70;99.90;;;;;;5013909;28;20438;-63
2023/09/22 11:10:10;;;;;;;3.38;2.90;;;17.80;99.90;;;;;;5014623;28;20049;-65
2023/09/22 11:12:36;;;;;;;3.03;2.60;;;17.80;99.90;;;;;;5014293;28;20050;-65
2023/09/22 11:15:03;;;;;;;4.10;3.22;;;17.90;99.90;;;;;;5013213;28;20057;-65
2023/09/22 11:17:46;;;;;;;3.58;3.10;;;17.90;99.90;;;;;;5013036;28;20462;-63
2023/09/22 11:20:22;;;;;;;3.50;2.75;;;17.80;99.90;;;;;;5014094;28;20152;-63
2023/09/22 11:22:50;;;;;;;5.93;3.00;;;17.70;99.90;;;;;;4997858;28;20057;-64
2023/09/22 11:25:16;;;;;;;3.67;3.00;;;17.90;99.90;;;;;;5014217;28;20054;-65
2023/09/22 11:27:49;;;;;;;3.40;2.65;;;17.90;99.90;;;;;;4996189;28;20053;-62
2023/09/22 11:30:26;;;;;;;3.83;2.50;;;17.90;99.90;;;;;;5014174;28;20045;-64
2023/09/22 11:32:54;;;;;;;4.63;2.83;;;17.90;99.90;;;;;;5014274;28;20045;-63
2023/09/22 11:35:39;;;;;;;3.72;2.63;;;17.90;99.90;;;;;;5014023;28;20455;-63
2023/09/22 11:38:29;;;;;;;3.15;2.60;;;17.80;99.90;;;;;;5012928;28;20050;-64
2023/09/22 11:41:10;;;;;;;2.60;2.30;;;17.90;99.90;;;;;;5014154;28;20054;-64
2023/09/22 11:43:41;;;;;;;2.88;2.38;;;18.00;99.90;;;;;;5013704;28;20049;-65
2023/09/22 11:46:25;;;;;;;2.78;2.35;;;17.80;99.90;;;;;;5013587;28;20110;-64
2023/09/22 11:49:02;;;;;;;2.60;2.20;;;17.90;99.90;;;;;;5013946;28;20116;-63
2023/09/22 11:51:50;;;;;;;3.58;2.60;;;18.00;99.90;;;;;;5013307;28;20057;-64
2023/09/22 11:54:24;;;;;;;3.03;2.65;;;18.10;99.90;;;;;;5013390;28;20054;-65
2023/09/22 11:56:55;;;;;;;4.78;2.40;;;18.10;99.90;;;;;;5013027;28;20480;-63
2023/09/22 11:59:22;;;;;;;3.05;2.70;;;18.00;99.90;;;;;;4996613;28;20057;-63
2023/09/22 12:01:50;;;;;;;3.13;2.30;;;17.90;99.90;;;;;;4996523;28;20058;-64
2023/09/22 12:04:22;;;;;;;4.53;2.50;;;17.80;99.90;;;;;;5013571;28;20053;-63
2023/09/22 12:06:49;;;;;;;2.75;2.08;;;17.70;99.90;;;;;;5012720;28;20094;-64
2023/09/22 12:09:16;;;;;;;3.50;2.25;;;17.70;99.90;;;;;;5013362;28;20058;-64
2023/09/22 12:11:44;;;;;;;2.97;2.35;;;17.70;99.90;;;;;;5012918;28;20112;-63
2023/09/22 12:14:11;;;;;;;4.50;2.17;;;17.70;99.90;;;;;;5012353;28;20046;-64
2023/09/22 12:16:38;;;;;;;3.58;2.30;;;17.60;99.90;;;;;;5010498;28;20046;-63
2023/09/22 12:19:05;;;;;;;2.60;2.20;;;17.70;99.90;;;;;;5011471;28;20111;-63
2023/09/22 12:21:32;;;;;;;4.03;2.10;;;17.60;99.90;;;;;;5011680;28;20042;-63
2023/09/22 12:23:59;;;;;;;2.78;2.00;;;17.70;99.90;;;;;;5012549;28;20199;-63
2023/09/22 12:26:26;;;;;;;3.88;2.10;;;17.80;99.90;;;;;;5011204;28;20034;-65
2023/09/22 12:28:53;;;;;;;4.35;2.80;;;17.80;99.90;;;;;;5012391;28;20134;-64
2023/09/22 12:31:19;;;;;;;3.55;2.30;;;17.90;99.90;;;;;;5013096;28;20042;-64
2023/09/22 12:33:46;;;;;;;3.92;2.58;;;18.10;99.90;;;;;;5012480;28;20049;-66
2023/09/22 12:36:14;;;;;;;2.72;2.25;;;18.20;99.90;;;;;;4993902;28;20065;-66
2023/09/22 12:38:44;;;;;;;4.38;2.47;;;18.30;99.90;;;;;;5011885;28;20084;-64
2023/09/22 12:41:11;;;;;;;3.83;2.45;;;18.40;99.90;;;;;;5012645;28;20412;-65
2023/09/22 12:43:38;;;;;;;4.32;2.30;;;18.30;99.90;;;;;;5012321;28;20054;-64